createdAt,value
2023-10-17T00:01:36.062Z,69.17
2023-10-17T00:04:28.049Z,69.18
2023-10-17T00:07:04.289Z,69.58
2023-10-17T00:09:38.091Z,69.52
2023-10-17T00:12:15.542Z,69.67
2023-10-17T00:14:55.258Z,69.87
2023-10-17T00:17:22.924Z,69.74
2023-10-17T00:19:53.140Z,69.74
2023-10-17T00:22:20.523Z,69.90
2023-10-17T00:24:53.086Z,69.81
2023-10-17T00:27:20.524Z,70.03
2023-10-17T00:29:47.717Z,70.02
2023-10-17T00:32:16.150Z,70.19
2023-10-17T00:34:45.188Z,70.04
2023-10-17T00:37:12.880Z,69.67
2023-10-17T00:39:40.439Z,69.73
2023-10-17T00:42:09.566Z,70.09
2023-10-17T00:44:38.415Z,70.24
2023-10-17T00:47:08.151Z,70.18
2023-10-17T00:49:42.733Z,70.19
2023-10-17T00:52:20.461Z,70.35
2023-10-17T00:54:48.841Z,70.75
2023-10-17T00:57:16.848Z,70.93
2023-10-17T00:59:54.771Z,71.06
2023-10-17T01:02:25.083Z,70.55
2023-10-17T01:04:53.840Z,70.60
2023-10-17T01:07:36.041Z,70.35
2023-10-17T01:10:15.676Z,70.16
2023-10-17T01:12:54.396Z,70.00
2023-10-17T01:15:29.935Z,70.56
2023-10-17T01:18:07.289Z,71.12
2023-10-17T01:20:36.732Z,70.22
2023-10-17T01:23:05.639Z,70.17
2023-10-17T01:25:36.916Z,70.19
2023-10-17T01:28:07.508Z,70.55
2023-10-17T01:30:34.832Z,70.76
2023-10-17T01:33:02.122Z,70.39
2023-10-17T01:35:29.582Z,70.27
2023-10-17T01:37:57.245Z,70.11
2023-10-17T01:40:25.096Z,70.31
2023-10-17T01:42:53.498Z,70.24
2023-10-17T01:45:28.258Z,70.22
2023-10-17T01:47:55.746Z,70.13
2023-10-17T01:50:25.807Z,70.32
2023-10-17T01:52:59.751Z,70.35
2023-10-17T01:55:29.755Z,70.42
2023-10-17T01:58:01.383Z,70.46
2023-10-17T02:00:37.661Z,70.24
2023-10-17T02:03:07.136Z,70.41
2023-10-17T02:05:37.804Z,70.25
2023-10-17T02:08:06.744Z,70.56
2023-10-17T02:10:35.083Z,70.51
2023-10-17T02:13:05.857Z,70.54
2023-10-17T02:15:33.216Z,70.88
2023-10-17T02:18:05.442Z,70.59
2023-10-17T02:20:35.980Z,70.74
2023-10-17T02:23:20.539Z,70.75
2023-10-17T02:25:47.896Z,71.31
2023-10-17T02:28:15.037Z,71.44
2023-10-17T02:30:42.196Z,71.74
2023-10-17T02:33:15.335Z,71.91
2023-10-17T02:35:55.026Z,71.97
2023-10-17T02:38:22.493Z,71.86
2023-10-17T02:40:54.656Z,71.92
2023-10-17T02:43:21.812Z,72.01
2023-10-17T02:45:50.940Z,72.16
2023-10-17T02:48:28.052Z,72.14
2023-10-17T02:51:02.490Z,72.19
2023-10-17T02:53:31.601Z,72.19
2023-10-17T02:56:00.571Z,72.45
2023-10-17T02:58:27.663Z,72.49
2023-10-17T03:00:55.126Z,72.61
2023-10-17T03:03:23.766Z,72.85
2023-10-17T03:05:54.980Z,73.10
2023-10-17T03:08:22.599Z,73.13
2023-10-17T03:10:57.154Z,73.04
2023-10-17T03:13:35.203Z,72.59
2023-10-17T03:16:15.656Z,72.01
2023-10-17T03:18:43.248Z,71.77
2023-10-17T03:21:10.573Z,71.30
2023-10-17T03:23:39.337Z,71.12
2023-10-17T03:26:06.490Z,71.16
2023-10-17T03:28:34.898Z,71.33
2023-10-17T03:31:11.885Z,71.47
2023-10-17T03:33:43.947Z,71.49
2023-10-17T03:36:31.300Z,71.66
2023-10-17T03:39:18.565Z,71.86
2023-10-17T03:41:46.739Z,71.86
2023-10-17T03:44:19.603Z,71.58
2023-10-17T03:46:49.924Z,71.60
2023-10-17T03:49:19.892Z,71.53
2023-10-17T03:51:56.964Z,71.55
2023-10-17T03:54:24.531Z,71.48
2023-10-17T03:56:57.720Z,71.44
2023-10-17T03:59:40.483Z,71.37
2023-10-17T04:02:20.645Z,73.79
2023-10-17T04:04:57.387Z,73.23
2023-10-17T04:07:28.558Z,71.85
2023-10-17T04:10:01.767Z,71.69
2023-10-17T04:12:49.679Z,71.99
2023-10-17T04:15:20.602Z,71.75
2023-10-17T04:17:48.010Z,71.60
2023-10-17T04:20:18.033Z,71.93
2023-10-17T04:22:45.280Z,71.86
2023-10-17T04:25:35.391Z,71.71
2023-10-17T04:28:03.132Z,71.86
2023-10-17T04:30:47.890Z,71.71
2023-10-17T04:33:15.580Z,71.77
2023-10-17T04:35:48.820Z,72.09
2023-10-17T04:38:28.630Z,72.38
2023-10-17T04:41:04.011Z,72.44
2023-10-17T04:43:49.893Z,72.25
2023-10-17T04:46:18.662Z,72.44
2023-10-17T04:48:48.817Z,72.65
2023-10-17T04:51:18.587Z,72.29
2023-10-17T04:53:52.036Z,72.61
2023-10-17T04:56:24.320Z,72.89
2023-10-17T04:58:57.798Z,72.96
2023-10-17T05:01:38.234Z,72.57
2023-10-17T05:04:17.074Z,72.81
2023-10-17T05:07:07.671Z,72.64
2023-10-17T05:09:37.702Z,72.71
2023-10-17T05:12:24.045Z,72.80
2023-10-17T05:15:09.812Z,73.02
2023-10-17T05:17:55.761Z,73.13
2023-10-17T05:20:52.358Z,72.95
2023-10-17T05:23:38.145Z,72.78
2023-10-17T05:26:27.822Z,72.77
2023-10-17T05:29:13.807Z,72.84
2023-10-17T05:32:13.177Z,72.86
2023-10-17T05:34:59.788Z,73.05
2023-10-17T05:37:47.045Z,73.16
2023-10-17T05:40:32.931Z,73.13
2023-10-17T05:43:18.445Z,73.05
2023-10-17T05:46:33.472Z,73.24
2023-10-17T05:49:19.583Z,73.50
2023-10-17T05:52:05.212Z,73.48
2023-10-17T05:57:39.911Z,73.11
2023-10-17T06:00:26.156Z,73.26
2023-10-17T06:03:11.905Z,73.66
2023-10-17T06:06:05.030Z,73.20
2023-10-17T06:08:50.887Z,73.14
2023-10-17T06:11:36.871Z,72.70
2023-10-17T06:14:42.403Z,72.16
2023-10-17T06:17:23.739Z,71.53
2023-10-17T06:19:51.300Z,70.51
2023-10-17T06:22:21.061Z,70.00
2023-10-17T06:24:48.536Z,69.97
2023-10-17T06:27:36.266Z,69.88
2023-10-17T06:30:23.002Z,70.01
2023-10-17T06:32:50.241Z,69.46
2023-10-17T06:35:24.671Z,69.20
2023-10-17T06:37:53.223Z,68.76
2023-10-17T06:40:31.420Z,68.35
2023-10-17T06:43:01.952Z,68.48
2023-10-17T06:45:33.921Z,68.76
2023-10-17T06:48:09.218Z,68.10
2023-10-17T06:50:55.368Z,67.83
2023-10-17T06:53:29.150Z,67.56
2023-10-17T06:56:05.637Z,67.19
2023-10-17T06:58:34.314Z,66.94
2023-10-17T07:01:03.046Z,67.22
2023-10-17T07:03:36.168Z,67.42
2023-10-17T07:06:14.672Z,67.16
2023-10-17T07:08:42.846Z,66.71
2023-10-17T07:11:28.460Z,66.42
2023-10-17T07:14:23.359Z,65.85
2023-10-17T07:16:50.809Z,66.32
2023-10-17T07:19:27.335Z,66.07
2023-10-17T07:22:02.550Z,65.76
2023-10-17T07:24:36.012Z,65.86
2023-10-17T07:27:20.778Z,65.11
2023-10-17T07:30:00.027Z,65.24
2023-10-17T07:32:34.843Z,64.82
2023-10-17T07:35:06.414Z,64.95
2023-10-17T07:37:49.642Z,64.39
2023-10-17T07:40:16.877Z,64.25
2023-10-17T07:42:47.217Z,63.43
2023-10-17T07:45:15.981Z,63.44
2023-10-17T07:47:44.710Z,63.34
2023-10-17T07:50:15.646Z,63.27
2023-10-17T07:52:49.118Z,62.95
2023-10-17T07:55:19.954Z,63.02
2023-10-17T07:57:53.044Z,62.54
2023-10-17T08:00:31.253Z,62.34
2023-10-17T08:03:08.935Z,62.14
2023-10-17T08:05:39.162Z,61.71
2023-10-17T08:08:10.111Z,60.74
2023-10-17T08:10:37.300Z,60.65
2023-10-17T08:13:05.182Z,58.96
2023-10-17T08:15:40.087Z,59.40
2023-10-17T08:18:16.406Z,58.83
2023-10-17T08:21:03.471Z,58.19
2023-10-17T08:23:31.645Z,57.71
2023-10-17T08:26:02.585Z,56.61
2023-10-17T08:28:48.100Z,55.84
2023-10-17T08:31:26.000Z,57.27
2023-10-17T08:34:03.360Z,56.83
2023-10-17T08:36:44.570Z,56.39
2023-10-17T08:39:31.720Z,55.16
2023-10-17T08:42:07.705Z,53.58
2023-10-17T08:44:40.710Z,54.16
2023-10-17T08:47:28.324Z,54.72
2023-10-17T08:49:56.041Z,53.39
2023-10-17T08:52:25.979Z,52.69
2023-10-17T08:54:53.318Z,52.70
2023-10-17T08:57:25.014Z,51.97
2023-10-17T08:59:52.402Z,51.02
2023-10-17T09:02:25.916Z,51.16
2023-10-17T09:04:53.625Z,49.51
2023-10-17T09:07:33.967Z,48.82
2023-10-17T09:10:08.900Z,49.20
2023-10-17T09:12:44.537Z,48.83
2023-10-17T09:15:28.904Z,48.54
2023-10-17T09:18:09.782Z,48.46
2023-10-17T09:20:38.933Z,46.68
2023-10-17T09:23:23.205Z,44.48
2023-10-17T09:26:09.208Z,44.40
2023-10-17T09:28:37.369Z,43.65
2023-10-17T09:31:13.971Z,42.98
2023-10-17T09:33:46.311Z,43.45
2023-10-17T09:36:19.148Z,43.24
2023-10-17T09:38:48.315Z,42.99
2023-10-17T09:41:20.201Z,42.81
2023-10-17T09:43:55.507Z,42.41
2023-10-17T09:46:31.073Z,42.49
2023-10-17T09:49:01.915Z,41.71
2023-10-17T09:51:35.305Z,42.10
2023-10-17T09:54:06.127Z,39.78
2023-10-17T09:56:42.589Z,40.29
2023-10-17T09:59:23.146Z,39.68
2023-10-17T10:01:52.070Z,39.51
2023-10-17T10:04:21.183Z,38.45
2023-10-17T10:06:49.558Z,37.49
2023-10-17T10:09:17.529Z,36.99
2023-10-17T10:11:53.515Z,35.59
2023-10-17T10:14:29.609Z,35.83
2023-10-17T10:17:07.313Z,33.78
2023-10-17T10:19:43.663Z,34.81
2023-10-17T10:22:12.596Z,34.39
2023-10-17T10:24:41.384Z,33.95
2023-10-17T10:27:21.013Z,33.85
2023-10-17T10:29:54.130Z,34.51
2023-10-17T10:32:27.385Z,34.39
2023-10-17T10:34:55.050Z,33.88
2023-10-17T10:37:23.446Z,32.86
2023-10-17T10:40:10.462Z,33.21
2023-10-17T10:42:52.106Z,31.45
2023-10-17T10:45:56.863Z,30.99
2023-10-17T10:48:24.389Z,30.72
2023-10-17T10:51:01.610Z,30.37
2023-10-17T10:53:31.178Z,30.06
2023-10-17T10:56:03.659Z,30.30
2023-10-17T10:58:34.874Z,31.01
2023-10-17T11:01:04.585Z,32.01
2023-10-17T11:03:34.473Z,32.51
2023-10-17T11:06:06.119Z,32.63
2023-10-17T11:08:48.458Z,31.75
2023-10-17T11:11:18.233Z,31.73
2023-10-17T11:13:50.196Z,31.65
2023-10-17T11:16:22.665Z,31.70
2023-10-17T11:18:50.415Z,31.11
2023-10-17T11:21:24.024Z,31.13
2023-10-17T11:23:56.724Z,30.85
2023-10-17T11:26:28.774Z,31.75
2023-10-17T11:28:57.945Z,31.29
2023-10-17T11:31:26.645Z,31.56
2023-10-17T11:34:06.138Z,32.52
2023-10-17T11:36:56.413Z,32.47
2023-10-17T11:39:28.006Z,32.82
2023-10-17T11:41:56.049Z,32.91
2023-10-17T11:44:25.725Z,32.95
2023-10-17T11:46:57.354Z,33.19
2023-10-17T11:49:28.714Z,33.28
2023-10-17T11:52:02.867Z,33.60
2023-10-17T11:54:34.281Z,33.88
2023-10-17T11:57:16.277Z,34.62
2023-10-17T11:59:57.499Z,34.36
2023-10-17T12:02:25.604Z,34.35
2023-10-17T12:04:54.611Z,34.71
2023-10-17T12:07:22.950Z,34.91
2023-10-17T12:09:53.881Z,35.44
2023-10-17T12:12:21.294Z,35.10
2023-10-17T12:14:49.063Z,34.94
2023-10-17T12:17:20.957Z,35.11
2023-10-17T12:19:48.715Z,35.53
2023-10-17T12:22:16.134Z,35.43
2023-10-17T12:24:44.307Z,35.68
2023-10-17T12:27:14.060Z,35.97
2023-10-17T12:29:42.286Z,35.93
2023-10-17T12:32:13.205Z,36.06
2023-10-17T12:34:43.871Z,36.29
2023-10-17T12:37:13.176Z,36.13
2023-10-17T12:39:44.317Z,36.37
2023-10-17T12:42:15.633Z,36.46
2023-10-17T12:44:42.815Z,36.52
2023-10-17T12:47:09.981Z,36.40
2023-10-17T12:49:38.728Z,36.42
2023-10-17T12:52:06.641Z,36.53
2023-10-17T12:54:34.230Z,36.61
2023-10-17T12:57:01.456Z,36.75
2023-10-17T12:59:28.560Z,36.75
2023-10-17T13:01:56.287Z,36.82
2023-10-17T13:04:25.444Z,36.80
2023-10-17T13:06:55.032Z,36.90
2023-10-17T13:09:24.304Z,37.01
2023-10-17T13:11:51.553Z,37.02
2023-10-17T13:14:18.911Z,37.06
2023-10-17T13:16:47.244Z,37.39
2023-10-17T13:19:18.133Z,37.15
2023-10-17T13:21:47.018Z,37.21
2023-10-17T13:24:16.093Z,37.52
2023-10-17T13:26:45.441Z,37.50
2023-10-17T13:29:14.083Z,37.58
2023-10-17T13:31:41.372Z,37.64
2023-10-17T13:34:08.851Z,37.81
2023-10-17T13:36:36.126Z,37.85
2023-10-17T13:39:06.079Z,38.01
2023-10-17T13:41:33.300Z,37.91
2023-10-17T13:44:00.548Z,37.88
2023-10-17T13:46:27.804Z,37.78
2023-10-17T13:48:55.299Z,38.02
2023-10-17T13:51:22.972Z,38.09
2023-10-17T13:53:51.706Z,38.09
2023-10-17T13:56:22.952Z,37.92
2023-10-17T13:58:51.019Z,38.01
2023-10-17T14:01:34.191Z,38.10
2023-10-17T14:04:03.555Z,38.04
2023-10-17T14:06:39.884Z,38.20
2023-10-17T14:09:19.025Z,38.22
2023-10-17T14:11:49.610Z,38.38
2023-10-17T14:14:17.144Z,38.60
2023-10-17T14:16:45.281Z,39.13
2023-10-17T14:19:30.241Z,40.89
2023-10-17T14:22:12.293Z,40.79
2023-10-17T14:24:55.687Z,39.45
2023-10-17T14:27:24.602Z,39.17
2023-10-17T14:29:52.949Z,39.25
2023-10-17T14:32:22.193Z,39.48
2023-10-17T14:35:04.603Z,39.72
2023-10-17T14:37:34.812Z,40.01
2023-10-17T14:40:02.400Z,40.17
2023-10-17T14:42:30.283Z,40.21
2023-10-17T14:45:03.366Z,40.25
2023-10-17T14:47:31.565Z,40.47
2023-10-17T14:49:59.493Z,40.66
2023-10-17T14:52:26.544Z,40.83
2023-10-17T14:54:53.860Z,40.71
2023-10-17T14:57:22.781Z,40.93
2023-10-17T14:59:49.964Z,41.27
2023-10-17T15:02:17.118Z,41.61
2023-10-17T15:04:44.337Z,41.49
2023-10-17T15:07:13.568Z,41.61
2023-10-17T15:09:40.966Z,41.62
2023-10-17T15:12:10.368Z,41.71
2023-10-17T15:14:37.690Z,42.06
2023-10-17T15:17:06.581Z,42.37
2023-10-17T15:19:34.685Z,42.43
2023-10-17T15:22:05.299Z,42.51
2023-10-17T15:24:32.686Z,42.67
2023-10-17T15:27:00.283Z,42.68
2023-10-17T15:29:29.094Z,42.92
2023-10-17T15:31:56.991Z,43.14
2023-10-17T15:34:24.428Z,43.58
2023-10-17T15:36:53.452Z,43.77
2023-10-17T15:39:27.246Z,43.74
2023-10-17T15:41:54.972Z,43.61
2023-10-17T15:44:22.891Z,43.78
2023-10-17T15:46:50.409Z,44.01
2023-10-17T15:49:18.163Z,44.22
2023-10-17T15:51:45.513Z,44.37
2023-10-17T15:54:12.990Z,44.57
2023-10-17T15:56:40.103Z,44.80
2023-10-17T15:59:09.592Z,44.86
2023-10-17T16:01:36.957Z,44.64
2023-10-17T16:04:04.213Z,44.51
2023-10-17T16:06:31.942Z,44.75
2023-10-17T16:08:59.147Z,44.78
2023-10-17T16:11:30.212Z,45.13
2023-10-17T16:13:57.442Z,45.38
2023-10-17T16:16:25.850Z,45.85
2023-10-17T16:18:54.017Z,46.13
2023-10-17T16:21:21.396Z,45.93
2023-10-17T16:23:51.555Z,46.00
2023-10-17T16:26:18.950Z,45.73
2023-10-17T16:28:46.616Z,46.11
2023-10-17T16:31:14.869Z,46.92
2023-10-17T16:33:42.198Z,47.02
2023-10-17T16:36:10.336Z,46.72
2023-10-17T16:38:37.690Z,46.52
2023-10-17T16:41:04.982Z,46.58
2023-10-17T16:43:33.558Z,46.74
2023-10-17T16:46:02.032Z,47.06
2023-10-17T16:48:31.133Z,46.95
2023-10-17T16:51:00.831Z,46.99
2023-10-17T16:53:30.058Z,47.15
2023-10-17T16:55:58.563Z,47.17
2023-10-17T16:58:27.927Z,47.08
2023-10-17T17:01:07.354Z,46.99
2023-10-17T17:03:34.737Z,47.10
2023-10-17T17:06:09.512Z,47.39
2023-10-17T17:08:37.123Z,47.24
2023-10-17T17:11:07.953Z,47.86
2023-10-17T17:13:36.147Z,47.90
2023-10-17T17:16:04.432Z,47.91
2023-10-17T17:21:07.145Z,48.25
2023-10-17T17:23:34.480Z,48.63
2023-10-17T17:26:01.834Z,49.41
2023-10-17T17:28:29.089Z,49.35
2023-10-17T17:30:56.266Z,48.52
2023-10-17T17:33:23.558Z,48.49
2023-10-17T17:35:50.769Z,48.58
2023-10-17T17:38:18.635Z,48.95
2023-10-17T17:40:46.360Z,49.12
2023-10-17T17:43:14.272Z,49.47
2023-10-17T17:45:45.249Z,49.41
2023-10-17T17:48:12.638Z,49.51
2023-10-17T17:50:40.243Z,49.66
2023-10-17T17:53:07.402Z,50.19
2023-10-17T17:55:40.657Z,49.86
2023-10-17T17:58:08.561Z,48.96
2023-10-17T18:00:36.029Z,49.49
2023-10-17T18:03:03.625Z,49.08
2023-10-17T18:05:30.838Z,49.31
2023-10-17T18:07:58.034Z,49.66
2023-10-17T18:10:25.241Z,49.68
2023-10-17T18:12:52.684Z,50.57
2023-10-17T18:15:19.961Z,51.12
2023-10-17T18:17:48.599Z,51.60
2023-10-17T18:20:15.809Z,51.78
2023-10-17T18:22:46.851Z,51.68
2023-10-17T18:25:13.896Z,51.73
2023-10-17T18:27:40.991Z,51.74
2023-10-17T18:30:08.716Z,51.95
2023-10-17T18:32:36.157Z,52.56
2023-10-17T18:35:06.723Z,52.89
2023-10-17T18:37:39.249Z,52.57
2023-10-17T18:40:12.647Z,51.33
2023-10-17T18:42:40.821Z,51.48
2023-10-17T18:45:16.064Z,51.80
2023-10-17T18:47:43.811Z,52.99
2023-10-17T18:50:12.373Z,52.30
2023-10-17T18:52:39.733Z,52.27
2023-10-17T18:55:10.986Z,53.16
2023-10-17T18:57:41.839Z,53.64
2023-10-17T19:00:16.092Z,52.82
2023-10-17T19:02:44.849Z,52.41
2023-10-17T19:05:12.624Z,52.59
2023-10-17T19:07:42.766Z,52.77
2023-10-17T19:10:15.849Z,52.53
2023-10-17T19:12:51.953Z,52.62
2023-10-17T19:15:20.753Z,53.40
2023-10-17T19:17:47.942Z,54.40
2023-10-17T19:20:15.836Z,53.61
2023-10-17T19:22:44.543Z,52.78
2023-10-17T19:25:14.718Z,52.90
2023-10-17T19:27:42.005Z,53.08
2023-10-17T19:30:11.499Z,52.87
2023-10-17T19:32:39.721Z,52.95
2023-10-17T19:35:07.502Z,53.09
2023-10-17T19:37:34.606Z,53.08
2023-10-17T19:40:01.806Z,53.42
2023-10-17T19:42:29.109Z,53.41
2023-10-17T19:44:56.241Z,53.21
2023-10-17T19:47:23.568Z,53.42
2023-10-17T19:49:51.366Z,53.99
2023-10-17T19:52:18.719Z,53.86
2023-10-17T19:54:45.964Z,53.71
2023-10-17T19:57:13.255Z,53.63
2023-10-17T19:59:40.489Z,54.14
2023-10-17T20:02:07.618Z,53.89
2023-10-17T20:04:35.866Z,54.07
2023-10-17T20:07:03.164Z,54.12
2023-10-17T20:09:31.396Z,54.54
2023-10-17T20:12:00.494Z,54.88
2023-10-17T20:14:27.798Z,54.94
2023-10-17T20:16:55.043Z,55.04
2023-10-17T20:19:22.392Z,55.33
2023-10-17T20:21:49.822Z,55.68
2023-10-17T20:24:17.073Z,55.87
2023-10-17T20:26:44.227Z,56.10
2023-10-17T20:29:13.837Z,56.09
2023-10-17T20:31:41.153Z,56.09
2023-10-17T20:34:09.098Z,56.08
2023-10-17T20:36:37.494Z,56.05
2023-10-17T20:39:05.427Z,56.12
2023-10-17T20:41:34.931Z,55.85
2023-10-17T20:44:02.297Z,56.27
2023-10-17T20:46:33.429Z,56.20
2023-10-17T20:49:03.780Z,55.98
2023-10-17T20:51:31.268Z,55.76
2023-10-17T20:53:58.791Z,56.12
2023-10-17T20:56:38.736Z,56.27
2023-10-17T20:59:10.810Z,56.33
2023-10-17T21:01:38.088Z,56.23
2023-10-17T21:04:05.819Z,56.51
2023-10-17T21:06:33.876Z,56.99
2023-10-17T21:09:01.059Z,57.70
2023-10-17T21:11:28.373Z,57.62
2023-10-17T21:13:56.088Z,57.27
2023-10-17T21:16:23.415Z,56.90
2023-10-17T21:18:50.746Z,56.91
2023-10-17T21:21:17.982Z,57.27
2023-10-17T21:23:45.519Z,57.05
2023-10-17T21:26:14.097Z,57.25
2023-10-17T21:28:41.965Z,57.41
2023-10-17T21:31:09.606Z,57.46
2023-10-17T21:33:37.266Z,57.45
2023-10-17T21:36:06.056Z,57.48
2023-10-17T21:38:33.268Z,57.56
2023-10-17T21:41:03.268Z,57.64
2023-10-17T21:43:40.084Z,57.51
2023-10-17T21:46:08.899Z,57.46
2023-10-17T21:48:36.537Z,57.54
2023-10-17T21:51:10.270Z,57.87
2023-10-17T21:53:40.784Z,58.08
2023-10-17T21:56:08.883Z,58.30
2023-10-17T21:58:37.956Z,58.33
2023-10-17T22:01:06.540Z,58.17
2023-10-17T22:03:34.570Z,57.61
2023-10-17T22:06:07.996Z,57.20
2023-10-17T22:08:38.831Z,57.49
2023-10-17T22:11:20.289Z,57.50
2023-10-17T22:13:52.249Z,57.49
2023-10-17T22:16:23.176Z,57.46
2023-10-17T22:18:50.881Z,57.83
2023-10-17T22:21:21.340Z,57.99
2023-10-17T22:23:49.538Z,57.68
2023-10-17T22:26:17.076Z,57.33
2023-10-17T22:28:44.317Z,58.39
2023-10-17T22:31:11.745Z,58.03
2023-10-17T22:33:39.962Z,58.01
2023-10-17T22:36:09.381Z,57.87
2023-10-17T22:38:37.762Z,57.64
2023-10-17T22:41:05.831Z,57.73
2023-10-17T22:43:33.376Z,57.98
2023-10-17T22:46:06.126Z,58.12
2023-10-17T22:48:34.257Z,58.41
2023-10-17T22:51:02.472Z,58.86
2023-10-17T22:53:29.889Z,58.19
2023-10-17T22:55:57.140Z,59.02
2023-10-17T22:58:25.426Z,58.16
2023-10-17T23:00:53.104Z,58.57
2023-10-17T23:03:20.651Z,58.84
2023-10-17T23:05:47.907Z,58.72
2023-10-17T23:08:15.067Z,58.42
2023-10-17T23:10:42.222Z,58.63
2023-10-17T23:13:18.713Z,58.64
2023-10-17T23:15:58.001Z,58.81
2023-10-17T23:18:40.034Z,58.89
2023-10-17T23:21:20.121Z,59.76
2023-10-17T23:24:01.317Z,59.70
2023-10-17T23:26:42.329Z,59.83
2023-10-17T23:29:24.675Z,60.63
2023-10-17T23:32:02.435Z,59.94
2023-10-17T23:34:43.082Z,59.37
2023-10-17T23:37:22.783Z,58.98
2023-10-17T23:40:02.139Z,59.71
2023-10-17T23:42:42.478Z,59.63
2023-10-17T23:45:24.908Z,59.47
2023-10-17T23:48:07.857Z,59.60
2023-10-17T23:50:39.482Z,59.96
2023-10-17T23:53:10.729Z,59.60
2023-10-17T23:55:37.884Z,59.88
2023-10-17T23:58:05.271Z,59.99
